TimeCST,TemperatureF,Dew PointF,Humidity,Sea Level PressureIn,VisibilityMPH,Wind Direction,Wind SpeedMPH,Gust SpeedMPH,PrecipitationIn,Events,Conditions,WindDirDegrees,DateUTC
12:15 AM,25.7,13.5,60,30.39,10.0,NW,10.4,16.1,N/A,,Mostly Cloudy,320,2013-11-23 06:15:00
12:35 AM,25.3,13.8,62,30.39,10.0,NW,11.5,17.3,N/A,,Clear,310,2013-11-23 06:35:00
12:55 AM,24.8,13.1,61,30.40,10.0,NW,11.5,19.6,N/A,,Scattered Clouds,310,2013-11-23 06:55:00
1:15 AM,23.9,12.7,62,30.40,10.0,NW,11.5,19.6,N/A,,Scattered Clouds,310,2013-11-23 07:15:00
1:35 AM,23.4,12.2,62,30.41,10.0,NW,10.4,18.4,N/A,,Clear,320,2013-11-23 07:35:00
1:55 AM,23.4,12.2,62,30.43,10.0,WNW,12.7,20.7,N/A,,Mostly Cloudy,300,2013-11-23 07:55:00
2:15 AM,22.5,10.6,60,30.43,10.0,NW,12.7,-,N/A,,Scattered Clouds,320,2013-11-23 08:15:00
2:35 AM,22.1,9.5,58,30.44,10.0,NW,11.5,16.1,N/A,,Clear,310,2013-11-23 08:35:00
2:55 AM,21.6,8.8,58,30.44,10.0,NW,12.7,18.4,N/A,,Scattered Clouds,310,2013-11-23 08:55:00
3:15 AM,22.1,10.0,60,30.45,10.0,WNW,9.2,19.6,N/A,,Mostly Cloudy,300,2013-11-23 09:15:00
3:35 AM,20.8,10.4,64,30.46,10.0,NW,16.1,20.7,N/A,,Overcast,320,2013-11-23 09:35:00
3:55 AM,19.6,6.1,56,30.47,10.0,NW,16.1,23.0,N/A,,Mostly Cloudy,320,2013-11-23 09:55:00
4:15 AM,18.5,4.3,54,30.48,10.0,NW,9.2,18.4,N/A,,Scattered Clouds,310,2013-11-23 10:15:00
4:35 AM,17.6,3.7,55,30.49,10.0,NW,16.1,19.6,N/A,,Clear,310,2013-11-23 10:35:00
4:55 AM,16.7,3.6,56,30.50,10.0,NW,15.0,21.9,N/A,,Clear,310,2013-11-23 10:55:00
5:15 AM,16.3,3.2,56,30.51,10.0,NW,12.7,18.4,N/A,,Clear,310,2013-11-23 11:15:00
5:35 AM,16.0,3.7,59,30.52,10.0,NW,11.5,17.3,N/A,,Clear,310,2013-11-23 11:35:00
5:55 AM,15.8,4.1,60,30.53,10.0,NW,8.1,-,N/A,,Clear,310,2013-11-23 11:55:00
6:15 AM,15.4,4.1,61,30.54,10.0,NW,9.2,18.4,N/A,,Clear,310,2013-11-23 12:15:00
6:35 AM,14.9,4.3,63,30.54,10.0,NW,12.7,19.6,N/A,,Clear,310,2013-11-23 12:35:00
6:55 AM,14.5,4.5,64,30.54,10.0,NW,12.7,-,N/A,,Clear,310,2013-11-23 12:55:00
7:15 AM,14.4,4.5,65,30.55,10.0,NW,10.4,17.3,N/A,,Clear,310,2013-11-23 13:15:00
7:35 AM,14.4,4.5,65,30.56,10.0,NW,15.0,20.7,N/A,,Clear,310,2013-11-23 13:35:00
7:55 AM,15.3,5.0,64,30.58,10.0,NW,11.5,18.4,N/A,,Clear,310,2013-11-23 13:55:00
8:15 AM,15.8,5.4,63,30.59,10.0,NW,11.5,17.3,N/A,,Clear,310,2013-11-23 14:15:00
8:35 AM,16.2,5.4,62,30.60,10.0,NNW,12.7,17.3,N/A,,Clear,330,2013-11-23 14:35:00
8:55 AM,17.2,4.5,57,30.60,10.0,NNW,16.1,-,N/A,,Clear,330,2013-11-23 14:55:00
9:15 AM,18.1,3.9,54,30.61,10.0,NNW,10.4,24.2,N/A,,Scattered Clouds,330,2013-11-23 15:15:00
9:35 AM,18.5,2.8,51,30.62,10.0,NNW,11.5,24.2,N/A,,Mostly Cloudy,340,2013-11-23 15:35:00
9:55 AM,18.7,3.2,51,30.62,10.0,NNW,13.8,21.9,N/A,,Mostly Cloudy,330,2013-11-23 15:55:00
10:15 AM,18.3,2.8,51,30.63,10.0,NW,13.8,21.9,N/A,,Mostly Cloudy,320,2013-11-23 16:15:00
10:35 AM,20.1,1.0,44,30.63,10.0,NW,16.1,23.0,N/A,,Scattered Clouds,320,2013-11-23 16:35:00
10:55 AM,20.8,-0.6,39,30.62,10.0,NNW,19.6,25.3,N/A,,Scattered Clouds,330,2013-11-23 16:55:00
11:15 AM,20.3,-0.0,41,30.63,10.0,NNW,13.8,20.7,N/A,,Scattered Clouds,330,2013-11-23 17:15:00
11:35 AM,20.8,-2.2,36,30.62,10.0,NNW,17.3,25.3,N/A,,Scattered Clouds,340,2013-11-23 17:35:00
11:55 AM,21.2,2.1,44,30.62,10.0,NNW,11.5,23.0,N/A,,Scattered Clouds,330,2013-11-23 17:55:00
12:15 PM,21.7,1.8,42,30.62,10.0,NW,13.8,-,N/A,,Scattered Clouds,310,2013-11-23 18:15:00
12:35 PM,21.6,-0.9,37,30.62,10.0,NW,17.3,23.0,N/A,,Scattered Clouds,310,2013-11-23 18:35:00
12:55 PM,21.2,-2.7,35,30.62,10.0,NW,16.1,21.9,N/A,,Scattered Clouds,320,2013-11-23 18:55:00
1:15 PM,21.2,-0.0,40,30.63,10.0,NNW,13.8,25.3,N/A,,Scattered Clouds,330,2013-11-23 19:15:00
1:35 PM,21.2,-1.1,38,30.63,10.0,NW,15.0,18.4,N/A,,Scattered Clouds,320,2013-11-23 19:35:00
1:55 PM,21.0,1.4,43,30.63,10.0,NW,15.0,21.9,N/A,,Scattered Clouds,320,2013-11-23 19:55:00
2:15 PM,21.2,-1.7,37,30.63,10.0,WNW,11.5,19.6,N/A,,Scattered Clouds,300,2013-11-23 20:15:00
2:35 PM,20.8,-1.3,38,30.62,10.0,NNW,16.1,19.6,N/A,,Scattered Clouds,330,2013-11-23 20:35:00
2:55 PM,21.0,-2.7,35,30.63,10.0,NNW,16.1,20.7,N/A,,Clear,330,2013-11-23 20:55:00
3:15 PM,20.1,-1.8,38,30.64,10.0,NW,9.2,18.4,N/A,,Scattered Clouds,310,2013-11-23 21:15:00
3:35 PM,19.8,-0.9,40,30.64,10.0,NW,8.1,-,N/A,,Scattered Clouds,320,2013-11-23 21:35:00
3:55 PM,19.0,-1.7,40,30.64,10.0,NNW,12.7,19.6,N/A,,Clear,330,2013-11-23 21:55:00
4:15 PM,18.5,-1.3,42,30.65,10.0,NW,9.2,19.6,N/A,,Clear,320,2013-11-23 22:15:00
4:35 PM,17.6,-0.6,45,30.66,10.0,NW,10.4,-,N/A,,Clear,320,2013-11-23 22:35:00
4:55 PM,17.4,-1.8,43,30.66,10.0,NW,9.2,17.3,N/A,,Clear,310,2013-11-23 22:55:00
5:15 PM,16.9,-1.8,44,30.67,10.0,NW,10.4,16.1,N/A,,Clear,310,2013-11-23 23:15:00
5:35 PM,16.7,-1.3,45,30.68,10.0,NW,6.9,-,N/A,,Clear,310,2013-11-23 23:35:00
5:55 PM,15.6,-0.6,49,30.68,10.0,NW,6.9,-,N/A,,Clear,320,2013-11-23 23:55:00
6:15 PM,14.9,-0.6,50,30.68,10.0,NW,6.9,-,N/A,,Clear,320,2013-11-24 00:15:00
6:35 PM,14.2,-0.4,52,30.68,10.0,NW,4.6,-,N/A,,Clear,310,2013-11-24 00:35:00
6:55 PM,13.6,0.1,55,30.68,10.0,NW,4.6,-,N/A,,Clear,320,2013-11-24 00:55:00
7:15 PM,13.8,-0.0,54,30.67,10.0,NW,3.5,-,N/A,,Clear,310,2013-11-24 01:15:00
7:35 PM,13.5,0.1,55,30.68,10.0,WNW,3.5,-,N/A,,Clear,300,2013-11-24 01:35:00
7:55 PM,13.6,-0.4,54,30.67,10.0,NW,4.6,-,N/A,,Clear,320,2013-11-24 01:55:00
8:15 PM,12.6,0.5,59,30.68,10.0,NW,4.6,-,N/A,,Clear,310,2013-11-24 02:15:00
8:35 PM,13.1,-0.0,56,30.68,10.0,WNW,5.8,-,N/A,,Clear,300,2013-11-24 02:35:00
8:55 PM,12.9,0.5,58,30.68,10.0,NW,5.8,-,N/A,,Clear,320,2013-11-24 02:55:00
9:15 PM,12.2,0.3,59,30.68,10.0,NW,4.6,-,N/A,,Clear,310,2013-11-24 03:15:00
9:35 PM,11.7,0.3,60,30.67,10.0,NW,3.5,-,N/A,,Clear,320,2013-11-24 03:35:00
9:55 PM,12.0,0.1,59,30.67,10.0,West,4.6,-,N/A,,Clear,280,2013-11-24 03:55:00
10:15 PM,11.7,0.1,60,30.67,10.0,West,4.6,-,N/A,,Clear,260,2013-11-24 04:15:00
10:35 PM,10.8,0.9,64,30.67,10.0,WSW,5.8,-,N/A,,Clear,250,2013-11-24 04:35:00
10:55 PM,10.0,0.9,66,30.67,10.0,WSW,6.9,-,N/A,,Clear,250,2013-11-24 04:55:00
11:15 PM,10.4,1.8,68,30.67,10.0,WSW,4.6,-,N/A,,Clear,250,2013-11-24 05:15:00
11:35 PM,10.2,2.1,70,30.67,10.0,West,5.8,-,N/A,,Clear,260,2013-11-24 05:35:00
11:55 PM,10.0,2.3,71,30.66,10.0,West,6.9,-,N/A,,Clear,260,2013-11-24 05:55:00